createdAt,value
2022-12-24T00:02:16.325Z,11.29
2022-12-24T00:07:11.181Z,11.33
2022-12-24T00:12:05.173Z,11.33
2022-12-24T00:16:58.702Z,11.25
2022-12-24T00:21:52.201Z,11.34
2022-12-24T00:26:47.078Z,11.48
2022-12-24T00:31:40.420Z,11.47
2022-12-24T00:36:33.850Z,11.27
2022-12-24T00:41:29.224Z,11.11
2022-12-24T00:46:25.815Z,11.06
2022-12-24T00:51:19.902Z,11.02
2022-12-24T00:56:13.387Z,10.96
2022-12-24T01:01:07.635Z,10.90
2022-12-24T01:11:11.554Z,10.80
2022-12-24T01:16:14.260Z,10.85
2022-12-24T01:21:35.127Z,10.88
2022-12-24T01:26:35.470Z,11.04
2022-12-24T01:31:32.126Z,11.02
2022-12-24T01:36:25.653Z,11.05
2022-12-24T01:41:41.111Z,11.00
2022-12-24T01:46:36.765Z,10.94
2022-12-24T01:51:38.840Z,10.80
2022-12-24T01:56:34.049Z,10.75
2022-12-24T02:01:28.031Z,10.72
2022-12-24T02:06:24.119Z,10.71
2022-12-24T02:11:21.804Z,10.72
2022-12-24T02:16:33.970Z,10.64
2022-12-24T02:21:56.275Z,10.77
2022-12-24T02:27:12.824Z,10.74
2022-12-24T02:32:16.363Z,10.67
2022-12-24T02:37:20.333Z,10.84
2022-12-24T02:42:20.056Z,10.79
2022-12-24T02:47:18.667Z,11.01
2022-12-24T02:52:31.095Z,11.07
2022-12-24T02:57:39.750Z,11.05
2022-12-24T03:03:07.681Z,11.20
2022-12-24T03:08:10.890Z,11.04
2022-12-24T03:13:13.219Z,10.94
2022-12-24T03:18:11.724Z,10.86
2022-12-24T03:23:06.346Z,10.86
2022-12-24T03:28:04.415Z,10.81
2022-12-24T03:32:58.109Z,10.69
2022-12-24T03:37:53.297Z,10.68
2022-12-24T03:42:46.915Z,10.77
2022-12-24T03:47:40.286Z,10.77
2022-12-24T03:52:33.844Z,10.75
2022-12-24T03:57:28.632Z,10.58
2022-12-24T04:02:22.121Z,10.56
2022-12-24T04:07:15.615Z,10.52
2022-12-24T04:12:09.654Z,10.54
2022-12-24T04:17:04.680Z,10.65
2022-12-24T04:21:58.365Z,10.70
2022-12-24T04:26:51.918Z,10.72
2022-12-24T04:31:45.284Z,10.61
2022-12-24T04:36:40.399Z,10.67
2022-12-24T04:41:33.861Z,10.73
2022-12-24T04:46:31.575Z,10.63
2022-12-24T04:51:26.235Z,10.72
2022-12-24T04:56:24.040Z,10.53
2022-12-24T05:01:21.027Z,10.43
2022-12-24T05:06:19.195Z,10.42
2022-12-24T05:11:14.443Z,10.44
2022-12-24T05:16:10.112Z,10.38
2022-12-24T05:21:04.111Z,10.35
2022-12-24T05:26:14.811Z,10.36
2022-12-24T05:31:09.623Z,10.19
2022-12-24T05:36:03.096Z,10.16
2022-12-24T05:40:56.506Z,10.12
2022-12-24T05:45:50.349Z,10.19
2022-12-24T05:50:45.120Z,10.26
2022-12-24T05:55:38.443Z,10.27
2022-12-24T06:00:31.805Z,10.25
2022-12-24T06:05:25.132Z,10.23
2022-12-24T06:10:20.026Z,10.22
2022-12-24T06:15:17.454Z,10.11
2022-12-24T06:20:13.915Z,10.24
2022-12-24T06:25:08.395Z,10.08
2022-12-24T06:30:03.266Z,10.05
2022-12-24T06:34:56.624Z,10.01
2022-12-24T06:39:49.993Z,10.09
2022-12-24T06:44:43.425Z,10.03
2022-12-24T06:49:38.105Z,9.99
2022-12-24T06:54:31.487Z,9.99
2022-12-24T06:59:24.969Z,9.93
2022-12-24T07:04:20.670Z,9.88
2022-12-24T07:09:16.128Z,9.90
2022-12-24T07:14:10.131Z,9.94
2022-12-24T07:19:04.481Z,9.92
2022-12-24T07:23:57.826Z,9.89
2022-12-24T07:28:52.809Z,10.00
2022-12-24T07:33:46.251Z,9.91
2022-12-24T07:38:39.853Z,9.88
2022-12-24T07:43:35.317Z,9.82
2022-12-24T07:48:32.889Z,9.82
2022-12-24T07:53:29.832Z,9.80
2022-12-24T07:58:23.759Z,9.78
2022-12-24T08:03:20.528Z,9.74
2022-12-24T08:08:15.939Z,9.73
2022-12-24T08:13:10.089Z,9.59
2022-12-24T08:18:03.548Z,9.62
2022-12-24T08:22:56.982Z,9.58
2022-12-24T08:27:51.907Z,9.64
2022-12-24T08:32:45.274Z,9.54
2022-12-24T08:37:38.700Z,9.54
2022-12-24T08:42:32.072Z,9.59
2022-12-24T08:47:26.807Z,9.45
2022-12-24T08:52:20.391Z,9.47
2022-12-24T08:57:14.696Z,9.54
2022-12-24T09:02:08.264Z,9.56
2022-12-24T09:07:03.147Z,9.52
2022-12-24T09:11:56.691Z,9.37
2022-12-24T09:16:50.155Z,9.53
2022-12-24T09:21:43.706Z,9.49
2022-12-24T09:26:38.538Z,9.47
2022-12-24T09:31:31.940Z,9.33
2022-12-24T09:36:25.358Z,9.33
2022-12-24T09:41:54.927Z,9.39
2022-12-24T09:46:53.724Z,9.33
2022-12-24T09:51:53.337Z,9.36
2022-12-24T09:56:49.768Z,9.41
2022-12-24T10:01:44.045Z,9.55
2022-12-24T10:06:51.222Z,9.51
2022-12-24T10:11:55.169Z,9.57
2022-12-24T10:16:59.597Z,9.48
2022-12-24T10:22:12.446Z,9.48
2022-12-24T10:27:15.081Z,9.50
2022-12-24T10:32:22.462Z,9.63
2022-12-24T10:37:25.767Z,9.63
2022-12-24T10:42:21.428Z,9.60
2022-12-24T10:47:16.197Z,9.66
2022-12-24T10:52:15.143Z,9.71
2022-12-24T10:57:27.851Z,9.70
2022-12-24T11:02:30.535Z,9.54
2022-12-24T11:07:25.322Z,9.57
2022-12-24T11:12:24.995Z,9.64
2022-12-24T11:17:24.244Z,9.61
2022-12-24T11:22:24.411Z,9.52
2022-12-24T11:27:47.367Z,9.55
2022-12-24T11:32:40.809Z,9.50
2022-12-24T11:37:34.472Z,9.51
2022-12-24T11:42:35.507Z,9.52
2022-12-24T11:47:38.615Z,9.64
2022-12-24T11:52:33.412Z,9.67
2022-12-24T11:57:39.371Z,9.69
2022-12-24T12:02:39.295Z,9.64
2022-12-24T12:07:36.685Z,9.68
2022-12-24T12:12:35.366Z,9.71
2022-12-24T12:17:38.275Z,9.65
2022-12-24T12:22:43.478Z,9.73
2022-12-24T12:27:45.465Z,9.76
2022-12-24T12:32:49.997Z,9.80
2022-12-24T12:37:50.592Z,9.85
2022-12-24T12:42:53.672Z,9.83
2022-12-24T12:48:21.798Z,9.95
2022-12-24T12:53:39.977Z,9.98
2022-12-24T12:58:40.965Z,10.03
2022-12-24T13:36:16.752Z,9.67
2022-12-24T13:41:53.952Z,9.63
2022-12-24T13:47:03.282Z,9.63
2022-12-24T13:52:22.875Z,9.61
2022-12-24T13:57:33.880Z,9.63
2022-12-24T14:02:32.042Z,9.66
2022-12-24T14:07:27.896Z,9.66
2022-12-24T14:12:54.364Z,9.77
2022-12-24T14:17:50.457Z,9.78
2022-12-24T14:22:47.169Z,9.81
2022-12-24T14:27:46.822Z,9.68
2022-12-24T14:32:42.284Z,9.65
2022-12-24T14:37:37.112Z,9.62
2022-12-24T14:42:43.080Z,9.61
2022-12-24T14:47:47.143Z,9.54
2022-12-24T14:53:05.326Z,9.48
2022-12-24T14:58:31.244Z,9.41
2022-12-24T15:03:28.420Z,9.48
2022-12-24T15:08:32.182Z,9.31
2022-12-24T15:13:36.978Z,9.26
2022-12-24T15:18:35.444Z,9.13
2022-12-24T15:23:33.787Z,9.23
2022-12-24T15:28:28.712Z,9.09
2022-12-24T15:33:22.196Z,9.10
2022-12-24T15:38:33.935Z,9.10
2022-12-24T15:43:29.850Z,9.10
2022-12-24T15:48:27.910Z,9.01
2022-12-24T15:53:29.371Z,8.98
2022-12-24T15:58:30.143Z,9.00
2022-12-24T16:03:23.706Z,8.97
